Route Details

Aircraft Information
Group: North America Fleet
Types: B738, B752, B762, B763
Route Data
Distance: 565nm
Duration: 1h 55m
Origin METAR: KRFD 160054Z 05003KT 10SM SCT100 OVC250 22/17 A3009 RMK AO2 SLP188 T02220167 $
Dest. METAR: KIAD 160052Z 32006KT 10SM FEW024 BKN080 BKN120 19/17 A2998 RMK AO2 SLP151 T01940167
Freight Data
(for Aug 16, 2022)
Load Factor:
64%
Manifested Cargo: 51,858lbs
Financial History
Total Freight: 922,130lbs
Average Load: 0lbs/flt
Fuel Used: 210,446lbs
Avg. Fuel Used: 0lbs/flt
Fuel Expense: $143,365
Avg. Fuel Expense: $0
Avg. Fuel Cost: $0/lbs
Total Gross Income: $1,222,083
Pilot Pay: $2,416
Total Expenses: $133,520
Total Revenue: $939,483
Average Revenue: $0

Capitol Logistics 381




KRFD
Chicago/Rockford International Airport
Rockford, Illinois
KIAD
Washington Dulles International Airport
Dulles, Virginia

Activity Log

Date Flight Route Aircraft Duration
06/17/2020 CPX433 JOT J60 JERRI NUSMM MGW GIBBZ2 B738 2h 37m
04/30/2020 CPX313 JOT J30 LUISE MGW GIBBZ3 B763 1h 58m
04/03/2020 CPX313 JOT J60 JERRI NUSMM MGW GIBBZ2 B763 1h 46m
02/13/2020 CPX313 JOT J60 JERRI NUSMM MGW GIBBZ2 B763 1h 37m
10/26/2019 CPX313 JOT J30 LUISE MGW GIBBZ3 B763 1h 43m
08/18/2019 CPX445 JOT J60 JERRI NUSMM MGW GIBBZ2 B738 1h 37m
06/23/2019 CPX433 JOT J60 JERRI NUSMM MGW GIBBZ2 B752 1h 38m
06/08/2019 CPX433 JOT J60 JERRI NUSMM MGW GIBBZ2 B752 2h 22m
05/26/2019 CPX313 JOT J60 JERRI NUSMM MGW GIBBZ3 B763 1h 33m
03/08/2019 CPX313 JOT J60 JERRI NUSMM MGW GIBBZ2 B763 1h 37m
12/11/2018 CPX511 JOT J60 JERRI NUSMM MGW GIBBZ2 B763 1h 40m
10/12/2018 CPX310 OBK ZIMEG OTENS ANEWA RIEKE DJB J34 AIR J162 MGW GIBBZ2 B752 1h 57m
09/29/2018 CPX320 OBK ZIMEG OTENS ANEWA RIEKE DJB J34 AIR J162 MGW GIBBZ2 B752 1h 49m
03/31/2018 CPX511 OBK ADIME OTENS ANEWA JERRI NUSMM MGW GIBBZ2 B752 1h 26m